ADDS METAR Data INFO
IDs: Format: Raw Decoded Include TAF

Data at: 0058 UTC 22 Oct 2017

KLAA 220053Z AUTO 04004KT 10SM CLR 10/M11 A3005 RMK AO2 SLP157 T01001106
KLAA 212353Z AUTO 02008KT 10SM CLR 13/M11 A3003 RMK AO2 SLP143 T01331106 10189 20133 53020
KLAA 212253Z AUTO 36015KT 10SM CLR 18/M12 A2999 RMK AO2 SLP123 T01781122
KLAA 212153Z AUTO 01010KT 10SM FEW110 18/M12 A2998 RMK AO2 SLP115 T01781117
KLAA 212053Z AUTO 36012KT 10SM CLR 17/M11 A2996 RMK AO2 SLP109 T01721111 53004
KLAA 211953Z AUTO 35015G23KT 10SM BKN110 18/M09 A2995 RMK AO2 PK WND 36028/1902 SLP106 T01781089
KLAA 211853Z AUTO 36019G27KT 10SM CLR 18/M09 A2994 RMK AO2 PK WND 01029/1833 SLP100 T01781089
KLAA 211753Z AUTO 01017G23KT 10SM CLR 16/M07 A2995 RMK AO2 SLP108 T01611072 10161 20094 51021
KLAA 211653Z AUTO 36013G21KT 10SM BKN080 14/M04 A2994 RMK AO2 SLP108 T01391044
KLAA 211553Z AUTO 36016G19KT 10SM CLR 11/M02 A2992 RMK AO2 SLP103 T01111022
KLAA 211453Z AUTO 36008KT 10SM CLR 09/01 A2988 RMK AO2 PK WND 01026/1435 SLP091 T00940006 51060
KLAA 211353Z AUTO 01012KT 10SM CLR 12/M03 A2983 RMK AO2 SLP077 T01171028
KLAA 211253Z AUTO 03010KT 10SM CLR 12/M01 A2975 RMK AO2 SLP044 T01171006
KLAA 211153Z AUTO 03009KT 10SM CLR 14/02 A2968 RMK AO2 WSHFT 1041 SLP011 T01390022 10189 20139 53047
KLAA 211101Z AUTO 28011KT 10SM CLR 15/04 A2963 RMK AO2 WSHFT 1041 T01500039
KLAA 211053Z AUTO 27013G25KT 10SM CLR 16/04 A2963 RMK AO2 PRESRR SLP983 T01560039
KLAA 210953Z AUTO 22013KT 10SM CLR 17/04 A2956 RMK AO2 SLP956 T01720044
KLAA 210853Z AUTO 21016KT 10SM CLR 19/05 A2953 RMK AO2 SLP943 T01890050 55000
KLAA 210753Z AUTO 21014KT 10SM CLR 18/04 A2952 RMK AO2 SLP945 T01830044
KLAA 210653Z AUTO 21014KT 10SM CLR 18/02 A2952 RMK AO2 SLP944 T01830022 403000100
KLAA 210553Z AUTO 21013KT 10SM CLR 17/02 A2953 RMK AO2 SLP953 T01720017 10228 20139 50001
KLAA 210453Z AUTO 22015KT 10SM CLR 18/02 A2953 RMK AO2 SLP963 T01780017
KLAA 210353Z AUTO 21013KT 10SM CLR 18/02 A2953 RMK AO2 SLP965 T01830017
KLAA 210253Z AUTO 21012KT 10SM CLR 19/02 A2952 RMK AO2 SLP962 T01890022 50000
KLAA 210153Z AUTO 20009KT 10SM CLR 14/01 A2952 RMK AO2 SLP972 T01390011
KLAA 210053Z AUTO 20008KT 10SM CLR 18/02 A2952 RMK AO2 SLP965 T01780017
KLAA 202353Z AUTO 20008KT 10SM CLR 23/01 A2952 RMK AO2 SLP955 T02330006 10300 20233 58008
KLAA 202253Z AUTO 20012KT 10SM FEW110 28/02 A2953 RMK AO2 SLP952 T02830017
KLAA 202153Z AUTO 21011G20KT 10SM CLR 29/02 A2955 RMK AO2 PK WND 21027/2138 SLP955 T02940017
KLAA 202053Z AUTO 23006G14KT 10SM CLR 29/01 A2955 RMK AO2 SLP955 T02940011 57039
KLAA 201953Z AUTO VRB05KT 10SM CLR 28/02 A2959 RMK AO2 SLP969 T02830022
KLAA 201853Z AUTO VRB05KT 10SM CLR 28/02 A2964 RMK AO2 SLP984 T02780017
KLAA 201753Z AUTO 10SM CLR 23/07 A2968 RMK AO2 SLP004 T02330072 10233 20100 58020
KLAA 201653Z AUTO 33004KT 10SM CLR 17/06 A2971 RMK AO2 SLP023 T01670061
KLAA 201553Z AUTO 28006KT 10SM CLR 13/06 A2973 RMK AO2 SLP035 T01330056
KLAA 201453Z AUTO 29004KT 10SM CLR 13/08 A2974 RMK AO2 SLP037 T01280078 50000
KLAA 201353Z AUTO 20004KT 10SM CLR 11/07 A2974 RMK AO2 SLP042 T01060072